createdAt,value
2018-12-08T00:00:27.572Z,11.11
2018-12-08T00:01:27.556Z,11.1
2018-12-08T00:02:27.558Z,11.07
2018-12-08T00:03:27.539Z,11.11
2018-12-08T00:04:27.543Z,11.07
2018-12-08T00:05:27.519Z,11.03
2018-12-08T00:06:27.508Z,11.07
2018-12-08T00:07:27.499Z,11.03
2018-12-08T00:08:27.490Z,11.07
2018-12-08T00:09:27.486Z,11.03
2018-12-08T00:10:27.581Z,11.03
2018-12-08T00:11:27.464Z,11.02
2018-12-08T00:12:27.453Z,11.06
2018-12-08T00:13:27.452Z,11.06
2018-12-08T00:14:27.439Z,11.06
2018-12-08T00:15:27.423Z,11.06
2018-12-08T00:16:27.413Z,11.07
2018-12-08T00:17:27.415Z,11.1
2018-12-08T00:18:27.395Z,11.06
2018-12-08T00:19:27.387Z,11.11
2018-12-08T00:20:27.376Z,11.1
2018-12-08T00:21:27.366Z,11.15
2018-12-08T00:22:27.362Z,11.07
2018-12-08T00:23:27.349Z,11.17
2018-12-08T00:24:27.341Z,11.25
2018-12-08T00:25:27.333Z,11.15
2018-12-08T00:26:27.318Z,11.18
2018-12-08T00:27:27.314Z,11.14
2018-12-08T00:28:27.300Z,11.17
2018-12-08T00:29:27.290Z,11.19
2018-12-08T00:30:27.333Z,11.21
2018-12-08T00:31:27.371Z,11.18
2018-12-08T00:32:27.264Z,11.17
2018-12-08T00:33:27.255Z,11.22
2018-12-08T00:34:27.247Z,11.21
2018-12-08T00:35:27.234Z,11.14
2018-12-08T00:36:27.224Z,11.06
2018-12-08T00:37:27.215Z,11.09
2018-12-08T00:38:27.204Z,11.11
2018-12-08T00:39:27.200Z,10.91
2018-12-08T00:40:27.193Z,10.89
2018-12-08T00:41:27.179Z,10.99
2018-12-08T00:42:27.183Z,10.85
2018-12-08T00:43:27.171Z,10.71
2018-12-08T00:44:27.153Z,10.76
2018-12-08T00:45:27.149Z,10.64
2018-12-08T00:46:27.136Z,10.56
2018-12-08T00:47:27.122Z,10.55
2018-12-08T00:48:27.110Z,10.47
2018-12-08T00:49:27.104Z,10.36
2018-12-08T00:50:27.091Z,10.33
2018-12-08T00:51:27.086Z,10.27
2018-12-08T00:52:27.075Z,10.23
2018-12-08T00:53:27.072Z,10.25
2018-12-08T00:54:27.144Z,10.25
2018-12-08T00:55:27.044Z,10.08
2018-12-08T00:56:27.035Z,10.11
2018-12-08T00:57:27.124Z,10.02
2018-12-08T00:58:27.013Z,10.05
2018-12-08T00:59:27.009Z,9.9
2018-12-08T01:00:26.996Z,9.96
2018-12-08T01:01:26.988Z,9.86
2018-12-08T01:02:26.972Z,9.9
2018-12-08T01:03:26.962Z,9.83
2018-12-08T01:04:26.954Z,9.78
2018-12-08T01:05:26.941Z,9.75
2018-12-08T01:06:26.934Z,9.68
2018-12-08T01:07:26.922Z,9.65
2018-12-08T01:08:26.923Z,9.65
2018-12-08T01:09:26.906Z,9.68
2018-12-08T01:10:26.888Z,9.61
2018-12-08T01:11:26.881Z,9.6
2018-12-08T01:12:26.876Z,9.58
2018-12-08T01:13:26.868Z,9.56
2018-12-08T01:14:26.850Z,9.51
2018-12-08T01:15:26.841Z,9.47
2018-12-08T01:16:26.832Z,9.42
2018-12-08T01:17:26.819Z,9.48
2018-12-08T01:18:26.809Z,9.47
2018-12-08T01:19:26.798Z,9.48
2018-12-08T01:20:26.851Z,9.46
2018-12-08T01:21:26.778Z,9.53
2018-12-08T01:22:26.777Z,9.51
2018-12-08T01:23:26.756Z,9.46
2018-12-08T01:24:26.749Z,9.56
2018-12-08T01:25:26.737Z,9.42
2018-12-08T01:26:26.733Z,9.47
2018-12-08T01:27:26.714Z,9.4
2018-12-08T01:28:26.718Z,9.42
2018-12-08T01:29:26.693Z,9.39
2018-12-08T01:30:26.686Z,9.47
2018-12-08T01:31:26.675Z,9.47
2018-12-08T01:32:26.664Z,9.47
2018-12-08T01:33:26.656Z,9.46
2018-12-08T01:34:26.643Z,9.54
2018-12-08T01:35:26.633Z,9.53
2018-12-08T01:36:26.622Z,9.4
2018-12-08T01:37:26.615Z,9.39
2018-12-08T01:38:26.601Z,9.42
2018-12-08T01:39:26.600Z,9.4
2018-12-08T01:40:26.587Z,9.4
2018-12-08T01:41:26.695Z,9.36
2018-12-08T01:42:26.561Z,9.48
2018-12-08T01:43:26.550Z,9.42
2018-12-08T01:44:26.538Z,9.43
2018-12-08T01:45:26.527Z,9.47
2018-12-08T01:46:26.518Z,9.48
2018-12-08T01:47:26.603Z,9.46
2018-12-08T01:48:26.496Z,9.51
2018-12-08T01:49:26.491Z,9.46
2018-12-08T01:50:26.479Z,9.43
2018-12-08T01:51:26.463Z,9.39
2018-12-08T01:52:26.471Z,9.46
2018-12-08T01:53:26.440Z,9.47
2018-12-08T01:54:26.434Z,9.43
2018-12-08T01:55:26.421Z,9.48
2018-12-08T01:56:26.412Z,9.46
2018-12-08T01:57:26.399Z,9.47
2018-12-08T01:58:26.390Z,9.43
2018-12-08T01:59:26.376Z,9.38
2018-12-08T02:00:26.448Z,9.38
2018-12-08T02:01:26.362Z,9.36
2018-12-08T02:02:26.347Z,9.35
2018-12-08T02:03:26.337Z,9.24
2018-12-08T02:04:26.326Z,9.17
2018-12-08T02:05:26.316Z,9.23
2018-12-08T02:06:26.304Z,9.2
2018-12-08T02:07:26.293Z,9.02
2018-12-08T02:08:26.388Z,9.01
2018-12-08T02:09:26.332Z,8.96
2018-12-08T02:10:26.276Z,8.92
2018-12-08T02:11:29.874Z,8.86
2018-12-08T02:12:26.246Z,8.84
2018-12-08T02:13:26.229Z,8.79
2018-12-08T02:14:26.325Z,8.79
2018-12-08T02:15:26.210Z,8.87
2018-12-08T02:16:26.280Z,8.8
2018-12-08T02:17:26.184Z,8.71
2018-12-08T02:18:26.189Z,8.83
2018-12-08T02:19:26.161Z,8.7
2018-12-08T02:20:26.150Z,8.66
2018-12-08T02:21:26.143Z,8.83
2018-12-08T02:22:26.153Z,8.74
2018-12-08T02:23:26.120Z,8.81
2018-12-08T02:24:26.107Z,8.77
2018-12-08T02:25:26.099Z,8.81
2018-12-08T02:26:26.083Z,8.81
2018-12-08T02:27:26.075Z,8.8
2018-12-08T02:28:26.064Z,8.77
2018-12-08T02:29:26.056Z,8.83
2018-12-08T02:30:26.201Z,8.8
2018-12-08T02:31:26.028Z,8.86
2018-12-08T02:32:26.021Z,8.84
2018-12-08T02:33:26.024Z,8.84
2018-12-08T02:34:26.002Z,8.76
2018-12-08T02:35:25.998Z,8.83
2018-12-08T02:36:25.979Z,8.66
2018-12-08T02:37:25.965Z,8.73
2018-12-08T02:38:25.963Z,8.65
2018-12-08T02:39:25.943Z,8.56
2018-12-08T02:40:25.933Z,8.5
2018-12-08T02:41:25.925Z,8.48
2018-12-08T02:42:25.931Z,8.52
2018-12-08T02:43:25.905Z,8.52
2018-12-08T02:44:25.889Z,8.4
2018-12-08T02:45:25.874Z,8.37
2018-12-08T02:46:25.874Z,8.37
2018-12-08T02:47:25.856Z,8.34
2018-12-08T02:48:25.851Z,8.33
2018-12-08T02:49:25.843Z,8.4
2018-12-08T02:50:25.821Z,8.37
2018-12-08T02:51:25.810Z,8.36
2018-12-08T02:52:25.820Z,8.36
2018-12-08T02:53:25.782Z,8.38
2018-12-08T02:54:25.782Z,8.47
2018-12-08T02:55:25.876Z,8.45
2018-12-08T02:56:25.778Z,8.43
2018-12-08T02:57:25.740Z,8.47
2018-12-08T02:58:25.756Z,8.53
2018-12-08T02:59:25.724Z,8.56
2018-12-08T03:00:25.704Z,8.66
2018-12-08T03:01:25.702Z,8.59
2018-12-08T03:02:25.681Z,8.76
2018-12-08T03:03:25.675Z,8.74
2018-12-08T03:04:25.663Z,8.76
2018-12-08T03:05:25.652Z,8.79
2018-12-08T03:06:25.640Z,8.71
2018-12-08T03:07:25.624Z,8.84
2018-12-08T03:08:25.615Z,8.79
2018-12-08T03:09:25.604Z,8.79
2018-12-08T03:10:25.592Z,8.76
2018-12-08T03:11:25.586Z,8.79
2018-12-08T03:12:25.574Z,8.79
2018-12-08T03:13:25.560Z,8.71
2018-12-08T03:14:25.553Z,8.76
2018-12-08T03:15:25.540Z,8.71
2018-12-08T03:16:25.283Z,8.84
2018-12-08T03:17:25.515Z,8.8
2018-12-08T03:18:25.506Z,8.83
2018-12-08T03:19:25.495Z,8.74
2018-12-08T03:20:25.480Z,8.84
2018-12-08T03:21:25.473Z,8.73
2018-12-08T03:22:25.459Z,8.77
2018-12-08T03:23:25.457Z,8.71
2018-12-08T03:24:25.439Z,8.71
2018-12-08T03:25:25.430Z,8.71
2018-12-08T03:26:25.412Z,8.66
2018-12-08T03:27:25.401Z,8.71
2018-12-08T03:28:25.393Z,8.68
2018-12-08T03:29:25.379Z,8.55
2018-12-08T03:30:25.571Z,8.62
2018-12-08T03:31:25.391Z,8.58
2018-12-08T03:32:25.364Z,8.59
2018-12-08T03:33:25.335Z,8.58
2018-12-08T03:34:25.323Z,8.62
2018-12-08T03:35:25.314Z,8.61
2018-12-08T03:36:25.301Z,8.58
2018-12-08T03:37:25.293Z,8.61
2018-12-08T03:38:25.281Z,8.55
2018-12-08T03:39:25.271Z,8.53
2018-12-08T03:40:25.264Z,8.52
2018-12-08T03:41:25.246Z,8.44
2018-12-08T03:42:25.234Z,8.38
2018-12-08T03:43:25.223Z,8.33
2018-12-08T03:44:25.210Z,8.33
2018-12-08T03:45:25.205Z,8.34
2018-12-08T03:46:25.189Z,8.19
2018-12-08T03:47:25.203Z,8.19
2018-12-08T03:48:25.181Z,8.16
2018-12-08T03:49:25.162Z,8.01
2018-12-08T03:50:25.149Z,8.05
2018-12-08T03:51:25.137Z,8.02
2018-12-08T03:52:25.120Z,8
2018-12-08T03:53:25.114Z,7.83
2018-12-08T03:54:25.101Z,7.89
2018-12-08T03:55:25.088Z,7.82
2018-12-08T03:56:25.083Z,7.72
2018-12-08T03:57:25.072Z,7.77
2018-12-08T03:58:25.054Z,7.68
2018-12-08T03:59:25.041Z,7.64
2018-12-08T04:00:25.035Z,7.6
2018-12-08T04:01:25.025Z,7.6
2018-12-08T04:02:25.011Z,7.58
2018-12-08T04:03:24.999Z,7.64
2018-12-08T04:04:24.999Z,7.49
2018-12-08T04:05:24.985Z,7.43
2018-12-08T04:06:24.966Z,7.58
2018-12-08T04:07:24.950Z,7.48
2018-12-08T04:08:24.941Z,7.53
2018-12-08T04:09:24.932Z,7.45
2018-12-08T04:10:24.917Z,7.48
2018-12-08T04:11:24.925Z,7.48
2018-12-08T04:12:24.894Z,7.49
2018-12-08T04:13:24.883Z,7.57
2018-12-08T04:14:24.897Z,7.53
2018-12-08T04:15:24.852Z,7.52
2018-12-08T04:16:24.619Z,7.39
2018-12-08T04:17:24.828Z,7.42
2018-12-08T04:18:24.812Z,7.35
2018-12-08T04:19:24.815Z,7.27
2018-12-08T04:20:24.792Z,7.28
2018-12-08T04:21:24.782Z,7.34
2018-12-08T04:22:24.769Z,7.31
2018-12-08T04:23:24.755Z,7.27
2018-12-08T04:24:24.741Z,7.2
2018-12-08T04:25:24.740Z,7.17
2018-12-08T04:26:24.719Z,7.21
2018-12-08T04:27:24.704Z,7.25
2018-12-08T04:28:24.751Z,7.32
2018-12-08T04:29:24.691Z,7.3
2018-12-08T04:30:24.679Z,7.31
2018-12-08T04:31:24.657Z,7.4
2018-12-08T04:32:24.644Z,7.43
2018-12-08T04:33:24.639Z,7.4
2018-12-08T04:34:24.624Z,7.46
2018-12-08T04:35:24.635Z,7.5
2018-12-08T04:36:24.601Z,7.58
2018-12-08T04:37:24.590Z,7.53
2018-12-08T04:38:24.575Z,7.63
2018-12-08T04:39:24.559Z,7.61
2018-12-08T04:40:24.552Z,7.57
2018-12-08T04:41:24.542Z,7.58
2018-12-08T04:42:24.529Z,7.55
2018-12-08T04:43:24.520Z,7.58
2018-12-08T04:44:24.502Z,7.58
2018-12-08T04:45:24.488Z,7.55
2018-12-08T04:46:24.478Z,7.55
2018-12-08T04:47:24.468Z,7.6
2018-12-08T04:48:24.534Z,7.6
2018-12-08T04:49:24.442Z,7.61
2018-12-08T04:50:24.427Z,7.72
2018-12-08T04:51:24.416Z,7.68
2018-12-08T04:52:24.401Z,7.75
2018-12-08T04:53:24.415Z,7.64
2018-12-08T04:54:24.390Z,7.77
2018-12-08T04:55:24.368Z,7.75
2018-12-08T04:56:24.361Z,7.79
2018-12-08T04:57:24.344Z,7.79
2018-12-08T04:58:24.337Z,7.82
2018-12-08T04:59:24.325Z,7.87
2018-12-08T05:00:24.308Z,7.87
2018-12-08T05:01:24.296Z,7.92
2018-12-08T05:02:24.290Z,7.95
2018-12-08T05:03:24.277Z,8
2018-12-08T05:04:24.261Z,8.02
2018-12-08T05:05:24.271Z,8.01
2018-12-08T05:06:24.243Z,8.02
2018-12-08T05:07:24.224Z,8.08
2018-12-08T05:08:24.218Z,7.98
2018-12-08T05:09:24.205Z,8.07
2018-12-08T05:10:24.189Z,8.08
2018-12-08T05:11:24.178Z,8.01
2018-12-08T05:12:24.164Z,7.95
2018-12-08T05:13:24.156Z,7.92
2018-12-08T05:14:24.144Z,7.8
2018-12-08T05:15:24.132Z,7.74
2018-12-08T05:16:24.121Z,7.67
2018-12-08T05:17:24.109Z,7.58
2018-12-08T05:18:24.168Z,7.6
2018-12-08T05:19:24.088Z,7.57
2018-12-08T05:20:24.071Z,7.63
2018-12-08T05:21:24.112Z,7.58
2018-12-08T05:22:24.050Z,7.45
2018-12-08T05:23:24.042Z,7.49
2018-12-08T05:24:24.029Z,7.53
2018-12-08T05:25:24.015Z,7.52
2018-12-08T05:26:23.765Z,7.52
2018-12-08T05:27:23.989Z,7.58
2018-12-08T05:28:23.978Z,7.58
2018-12-08T05:29:23.968Z,7.61
2018-12-08T05:30:23.960Z,7.46
2018-12-08T05:31:24.045Z,7.53
2018-12-08T05:32:23.940Z,7.55
2018-12-08T05:33:23.920Z,7.58
2018-12-08T05:34:24.024Z,7.72
2018-12-08T05:35:23.898Z,7.75
2018-12-08T05:36:23.892Z,7.67
2018-12-08T05:37:23.877Z,7.72
2018-12-08T05:38:23.859Z,7.79
2018-12-08T05:39:23.846Z,7.72
2018-12-08T05:40:23.842Z,7.8
2018-12-08T05:41:23.829Z,7.82
2018-12-08T05:42:23.815Z,7.8
2018-12-08T05:43:23.805Z,7.75
2018-12-08T05:44:23.789Z,7.82
2018-12-08T05:45:23.782Z,7.77
2018-12-08T05:46:23.767Z,7.83
2018-12-08T05:47:23.755Z,7.79
2018-12-08T05:48:23.744Z,7.82
2018-12-08T05:49:23.822Z,7.85
2018-12-08T05:50:23.721Z,7.79
2018-12-08T05:51:23.708Z,7.82
2018-12-08T05:52:23.693Z,7.75
2018-12-08T05:53:23.685Z,7.79
2018-12-08T05:54:23.742Z,7.82
2018-12-08T05:55:23.671Z,7.79
2018-12-08T05:56:23.662Z,7.8
2018-12-08T05:57:23.688Z,7.79
2018-12-08T05:58:23.627Z,7.8
2018-12-08T05:59:23.619Z,7.82
2018-12-08T06:00:23.603Z,7.82
2018-12-08T06:01:23.593Z,7.85
2018-12-08T06:02:23.589Z,7.93
2018-12-08T06:03:23.568Z,7.87
2018-12-08T06:04:23.560Z,7.89
2018-12-08T06:05:23.544Z,7.89
2018-12-08T06:06:23.533Z,7.92
2018-12-08T06:07:23.519Z,7.93
2018-12-08T06:08:23.525Z,7.95
2018-12-08T06:09:23.501Z,7.97
2018-12-08T06:10:23.557Z,7.97
2018-12-08T06:11:23.472Z,7.97
2018-12-08T06:12:23.463Z,7.98
2018-12-08T06:13:23.449Z,7.92
2018-12-08T06:14:23.444Z,7.9
2018-12-08T06:15:23.428Z,7.87
2018-12-08T06:16:23.413Z,7.89
2018-12-08T06:17:23.404Z,7.93
2018-12-08T06:18:23.390Z,7.98
2018-12-08T06:19:23.379Z,7.97
2018-12-08T06:20:23.370Z,7.97
2018-12-08T06:21:23.607Z,7.97
2018-12-08T06:22:23.344Z,7.93
2018-12-08T06:23:23.336Z,8
2018-12-08T06:24:23.322Z,7.97
2018-12-08T06:25:23.313Z,7.98
2018-12-08T06:26:23.304Z,7.97
2018-12-08T06:27:23.398Z,7.98
2018-12-08T06:28:23.283Z,8.04
2018-12-08T06:29:23.264Z,8.02
2018-12-08T06:30:23.252Z,7.95
2018-12-08T06:31:23.240Z,8
2018-12-08T06:32:23.230Z,7.98
2018-12-08T06:33:23.219Z,7.95
2018-12-08T06:34:23.205Z,8.02
2018-12-08T06:35:23.196Z,7.9
2018-12-08T06:36:23.184Z,7.86
2018-12-08T06:37:23.168Z,7.86
2018-12-08T06:38:23.159Z,7.77
2018-12-08T06:39:23.145Z,7.83
2018-12-08T06:40:29.112Z,7.68
2018-12-08T06:41:23.122Z,7.57
2018-12-08T06:42:23.129Z,7.46
2018-12-08T06:43:23.106Z,7.53
2018-12-08T06:44:23.087Z,7.46
2018-12-08T06:45:23.077Z,7.28
2018-12-08T06:46:23.074Z,7.24
2018-12-08T06:47:23.052Z,7.23
2018-12-08T06:48:23.042Z,7.16
2018-12-08T06:49:23.028Z,7.15
2018-12-08T06:50:23.018Z,7.07
2018-12-08T06:51:23.004Z,7.05
2018-12-08T06:52:23.093Z,6.97
2018-12-08T06:53:22.985Z,6.88
2018-12-08T06:54:22.968Z,6.81
2018-12-08T06:55:22.960Z,6.85
2018-12-08T06:56:22.949Z,6.77
2018-12-08T06:57:22.932Z,6.79
2018-12-08T06:58:22.919Z,6.73
2018-12-08T06:59:22.907Z,6.73
2018-12-08T07:00:22.897Z,6.69
2018-12-08T07:01:22.883Z,6.58
2018-12-08T07:02:22.872Z,6.61
2018-12-08T07:03:22.859Z,6.58
2018-12-08T07:04:22.851Z,6.56
2018-12-08T07:05:22.838Z,6.48
2018-12-08T07:06:22.824Z,6.49
2018-12-08T07:07:22.809Z,6.33
2018-12-08T07:08:22.809Z,6.34
2018-12-08T07:09:22.787Z,6.38
2018-12-08T07:10:22.777Z,6.34
2018-12-08T07:11:22.771Z,6.36
2018-12-08T07:12:22.747Z,6.3
2018-12-08T07:13:22.739Z,6.4
2018-12-08T07:14:22.722Z,6.41
2018-12-08T07:15:22.711Z,6.34
2018-12-08T07:16:22.699Z,6.4
2018-12-08T07:17:22.685Z,6.31
2018-12-08T07:18:22.674Z,6.43
2018-12-08T07:19:22.659Z,6.52
2018-12-08T07:20:22.654Z,6.54
2018-12-08T07:21:22.642Z,6.56
2018-12-08T07:22:22.627Z,6.69
2018-12-08T07:23:22.608Z,6.67
2018-12-08T07:24:22.594Z,6.7
2018-12-08T07:25:22.580Z,6.71
2018-12-08T07:26:22.570Z,6.7
2018-12-08T07:27:22.560Z,6.81
2018-12-08T07:28:23.748Z,6.84
2018-12-08T07:29:22.533Z,6.87
2018-12-08T07:30:22.519Z,6.88
2018-12-08T07:31:22.512Z,6.88
2018-12-08T07:32:22.502Z,6.98
2018-12-08T07:33:22.485Z,6.92
2018-12-08T07:34:22.473Z,6.98
2018-12-08T07:35:22.457Z,6.92
2018-12-08T07:36:22.449Z,6.99
2018-12-08T07:37:22.432Z,7.07
2018-12-08T07:38:22.423Z,7.05
2018-12-08T07:39:22.406Z,7.12
2018-12-08T07:40:22.397Z,7.09
2018-12-08T07:41:22.386Z,7.09
2018-12-08T07:42:22.373Z,7.03
2018-12-08T07:43:22.360Z,7.13
2018-12-08T07:44:22.346Z,7.17
2018-12-08T07:45:22.334Z,7.15
2018-12-08T07:46:22.322Z,7.3
2018-12-08T07:47:22.312Z,7.39
2018-12-08T07:48:22.298Z,7.32
2018-12-08T07:49:22.288Z,7.42
2018-12-08T07:50:22.269Z,7.45
2018-12-08T07:51:22.259Z,7.53
2018-12-08T07:52:22.257Z,7.45
2018-12-08T07:53:22.234Z,7.55
2018-12-08T07:54:22.223Z,7.5
2018-12-08T07:55:22.215Z,7.6
2018-12-08T07:56:22.201Z,7.6
2018-12-08T07:57:22.191Z,7.69
2018-12-08T07:58:22.178Z,7.68
2018-12-08T07:59:22.165Z,7.83
2018-12-08T08:00:22.154Z,7.77
2018-12-08T08:01:22.148Z,7.89
2018-12-08T08:02:22.132Z,7.87
2018-12-08T08:03:22.120Z,7.9
2018-12-08T08:04:22.104Z,7.93
2018-12-08T08:05:22.096Z,7.9
2018-12-08T08:06:22.083Z,8
2018-12-08T08:07:22.070Z,7.93
2018-12-08T08:08:22.057Z,7.98
2018-12-08T08:09:22.051Z,7.93
2018-12-08T08:10:22.040Z,7.98
2018-12-08T08:11:22.303Z,8.04
2018-12-08T08:12:22.014Z,8.01
2018-12-08T08:13:22.000Z,8.02
2018-12-08T08:14:21.992Z,8.19
2018-12-08T08:15:21.981Z,8.1
2018-12-08T08:16:21.965Z,8.01
2018-12-08T08:17:21.955Z,8.2
2018-12-08T08:18:21.942Z,8.15
2018-12-08T08:19:21.931Z,8.29
2018-12-08T08:20:21.918Z,8.26
2018-12-08T08:21:21.910Z,8.37
2018-12-08T08:22:21.899Z,8.41
2018-12-08T08:23:21.889Z,8.45
2018-12-08T08:24:21.877Z,8.48
2018-12-08T08:25:21.870Z,8.44
2018-12-08T08:26:21.850Z,8.52
2018-12-08T08:27:21.840Z,8.63
2018-12-08T08:28:21.834Z,8.65
2018-12-08T08:29:21.814Z,8.79
2018-12-08T08:30:21.805Z,8.79
2018-12-08T08:31:21.796Z,8.87
2018-12-08T08:32:21.788Z,9.02
2018-12-08T08:33:21.775Z,9.02
2018-12-08T08:34:21.762Z,9.18
2018-12-08T08:35:21.752Z,9.24
2018-12-08T08:36:21.746Z,9.28
2018-12-08T08:37:21.730Z,9.31
2018-12-08T08:38:21.723Z,9.35
2018-12-08T08:39:21.709Z,9.36
2018-12-08T08:40:21.701Z,9.32
2018-12-08T08:41:21.689Z,9.4
2018-12-08T08:42:21.683Z,9.38
2018-12-08T08:43:21.669Z,9.36
2018-12-08T08:44:21.657Z,9.32
2018-12-08T08:45:21.649Z,9.28
2018-12-08T08:46:21.639Z,9.26
2018-12-08T08:47:21.626Z,9.18
2018-12-08T08:48:21.620Z,9.15
2018-12-08T08:49:21.607Z,9.18
2018-12-08T08:50:21.600Z,9.18
2018-12-08T08:51:21.592Z,9.2
2018-12-08T08:52:21.580Z,9.05
2018-12-08T08:53:21.565Z,9.15
2018-12-08T08:54:21.553Z,9.13
2018-12-08T08:55:21.548Z,9.21
2018-12-08T08:56:21.537Z,9.18
2018-12-08T08:57:21.778Z,9.24
2018-12-08T08:58:21.513Z,9.31
2018-12-08T08:59:21.502Z,9.32
2018-12-08T09:00:21.493Z,9.46
2018-12-08T09:01:21.496Z,9.42
2018-12-08T09:02:21.474Z,9.48
2018-12-08T09:03:21.462Z,9.53
2018-12-08T09:04:21.457Z,9.53
2018-12-08T09:05:21.443Z,9.48
2018-12-08T09:06:21.186Z,9.48
2018-12-08T09:07:21.423Z,9.57
2018-12-08T09:08:21.412Z,9.58
2018-12-08T09:09:21.399Z,9.6
2018-12-08T09:10:21.388Z,9.61
2018-12-08T09:11:21.386Z,9.65
2018-12-08T09:12:21.131Z,9.6
2018-12-08T09:13:21.357Z,9.75
2018-12-08T09:14:21.348Z,9.69
2018-12-08T09:15:21.338Z,9.72
2018-12-08T09:16:21.332Z,9.81
2018-12-08T09:17:21.318Z,9.78
2018-12-08T09:18:21.404Z,9.79
2018-12-08T09:19:21.299Z,9.83
2018-12-08T09:20:21.287Z,9.79
2018-12-08T09:21:21.286Z,9.81
2018-12-08T09:22:21.273Z,9.81
2018-12-08T09:23:21.262Z,9.68
2018-12-08T09:24:21.253Z,9.72
2018-12-08T09:25:21.237Z,9.79
2018-12-08T09:26:21.230Z,9.68
2018-12-08T09:27:21.219Z,9.66
2018-12-08T09:28:21.209Z,9.71
2018-12-08T09:29:21.205Z,9.71
2018-12-08T09:30:21.205Z,9.71
2018-12-08T09:31:21.178Z,9.74
2018-12-08T09:32:21.167Z,9.72
2018-12-08T09:33:21.158Z,9.68
2018-12-08T09:34:21.147Z,9.84
2018-12-08T09:35:21.143Z,9.76
2018-12-08T09:36:21.131Z,9.84
2018-12-08T09:37:21.120Z,9.83
2018-12-08T09:38:21.120Z,9.87
2018-12-08T09:39:21.099Z,9.96
2018-12-08T09:40:21.097Z,9.96
2018-12-08T09:41:21.078Z,10.01
2018-12-08T09:42:21.068Z,10.02
2018-12-08T09:43:21.059Z,10.04
2018-12-08T09:44:21.048Z,10.08
2018-12-08T09:45:21.038Z,10.07
2018-12-08T09:46:21.031Z,10.11
2018-12-08T09:47:21.019Z,10.08
2018-12-08T09:48:21.011Z,10.11
2018-12-08T09:49:21.001Z,10.09
2018-12-08T09:50:20.991Z,10.09
2018-12-08T09:51:20.980Z,10.2
2018-12-08T09:52:20.727Z,10.17
2018-12-08T09:53:20.960Z,10.23
2018-12-08T09:54:20.710Z,10.2
2018-12-08T09:55:20.942Z,10.22
2018-12-08T09:56:20.931Z,10.18
2018-12-08T09:57:20.920Z,10.14
2018-12-08T09:58:20.919Z,10.23
2018-12-08T09:59:20.910Z,10.2
2018-12-08T10:00:20.892Z,10.22
2018-12-08T10:01:20.884Z,10.25
2018-12-08T10:02:20.872Z,10.3
2018-12-08T10:03:20.863Z,10.32
2018-12-08T10:04:20.932Z,10.36
2018-12-08T10:05:20.844Z,10.4
2018-12-08T10:06:20.837Z,10.34
2018-12-08T10:07:20.825Z,10.27
2018-12-08T10:08:20.820Z,10.26
2018-12-08T10:09:20.814Z,10.14
2018-12-08T10:10:20.799Z,10.18
2018-12-08T10:11:20.793Z,10.18
2018-12-08T10:12:20.776Z,10.07
2018-12-08T10:13:20.767Z,10.11
2018-12-08T10:14:20.761Z,10.08
2018-12-08T10:15:20.749Z,10.12
2018-12-08T10:16:20.746Z,10.15
2018-12-08T10:17:20.731Z,10.11
2018-12-08T10:18:20.723Z,9.97
2018-12-08T10:19:20.719Z,10.04
2018-12-08T10:20:20.701Z,10.08
2018-12-08T10:21:20.694Z,10.04
2018-12-08T10:22:20.686Z,10.04
2018-12-08T10:23:20.734Z,10.07
2018-12-08T10:24:20.662Z,10.08
2018-12-08T10:25:20.773Z,10.01
2018-12-08T10:26:20.642Z,10.08
2018-12-08T10:27:20.633Z,9.99
2018-12-08T10:28:20.627Z,10.08
2018-12-08T10:29:20.618Z,10.05
2018-12-08T10:30:20.605Z,10.05
2018-12-08T10:31:20.595Z,10.12
2018-12-08T10:32:20.591Z,10.14
2018-12-08T10:33:20.576Z,10.12
2018-12-08T10:34:20.569Z,10.04
2018-12-08T10:35:20.554Z,10.07
2018-12-08T10:36:20.547Z,10.15
2018-12-08T10:37:20.535Z,10.2
2018-12-08T10:38:20.534Z,10.17
2018-12-08T10:39:20.526Z,10.17
2018-12-08T10:40:20.506Z,10.17
2018-12-08T10:41:20.499Z,10.25
2018-12-08T10:42:20.491Z,10.32
2018-12-08T10:43:20.478Z,10.33
2018-12-08T10:44:20.569Z,10.34
2018-12-08T10:45:20.458Z,10.4
2018-12-08T10:46:20.447Z,10.42
2018-12-08T10:47:20.439Z,10.59
2018-12-08T10:48:20.431Z,10.55
2018-12-08T10:49:20.421Z,10.64
2018-12-08T10:50:20.503Z,10.71
2018-12-08T10:51:20.399Z,10.73
2018-12-08T10:52:20.390Z,10.82
2018-12-08T10:53:20.385Z,10.91
2018-12-08T10:54:20.379Z,11
2018-12-08T10:55:20.376Z,10.96
2018-12-08T10:56:20.355Z,10.97
2018-12-08T10:57:20.347Z,11
2018-12-08T10:58:20.338Z,10.97
2018-12-08T10:59:20.327Z,10.91
2018-12-08T11:00:20.444Z,11.02
2018-12-08T11:01:20.309Z,10.96
2018-12-08T11:02:20.300Z,11
2018-12-08T11:03:20.292Z,10.96
2018-12-08T11:04:20.279Z,10.97
2018-12-08T11:05:20.273Z,11
2018-12-08T11:06:21.979Z,11.04
2018-12-08T11:07:20.343Z,11.04
2018-12-08T11:08:20.243Z,11.03
2018-12-08T11:09:20.234Z,11.09
2018-12-08T11:10:20.228Z,11.06
2018-12-08T11:11:20.219Z,11.07
2018-12-08T11:12:20.215Z,11.07
2018-12-08T11:13:20.197Z,11.03
2018-12-08T11:14:20.191Z,11.02
2018-12-08T11:15:20.179Z,11.04
2018-12-08T11:16:20.168Z,11.04
2018-12-08T11:17:20.164Z,10.97
2018-12-08T11:18:20.153Z,10.97
2018-12-08T11:19:20.145Z,10.89
2018-12-08T11:20:20.137Z,10.76
2018-12-08T11:21:20.124Z,10.67
2018-12-08T11:22:20.117Z,10.78
2018-12-08T11:23:20.107Z,10.67
2018-12-08T11:24:19.859Z,10.63
2018-12-08T11:25:20.102Z,10.66
2018-12-08T11:26:20.080Z,10.63
2018-12-08T11:27:20.074Z,10.6
2018-12-08T11:28:20.063Z,10.6
2018-12-08T11:29:20.051Z,10.63
2018-12-08T11:30:20.047Z,10.66
2018-12-08T11:31:20.040Z,10.68
2018-12-08T11:32:20.032Z,10.67
2018-12-08T11:33:20.022Z,10.67
2018-12-08T11:34:20.006Z,10.64
2018-12-08T11:35:19.998Z,10.74
2018-12-08T11:36:19.989Z,10.73
2018-12-08T11:37:19.976Z,10.79
2018-12-08T11:38:19.966Z,10.74
2018-12-08T11:39:19.957Z,10.78
2018-12-08T11:40:19.953Z,10.88
2018-12-08T11:41:19.941Z,10.92
2018-12-08T11:42:19.935Z,10.89
2018-12-08T11:43:19.925Z,10.97
2018-12-08T11:44:19.916Z,10.92
2018-12-08T11:45:19.907Z,11.02
2018-12-08T11:46:19.904Z,11.07
2018-12-08T11:47:19.885Z,11.07
2018-12-08T11:48:20.182Z,11.09
2018-12-08T11:49:19.873Z,11.04
2018-12-08T11:50:19.858Z,11.15
2018-12-08T11:51:19.853Z,11.07
2018-12-08T11:52:19.841Z,11.11
2018-12-08T11:53:19.831Z,11.11
2018-12-08T11:54:19.831Z,11.11
2018-12-08T11:55:19.814Z,11.06
2018-12-08T11:56:19.808Z,11.17
2018-12-08T11:57:19.798Z,11.27
2018-12-08T11:58:19.788Z,11.36
2018-12-08T11:59:19.779Z,11.29
2018-12-08T12:00:19.769Z,11.33
2018-12-08T12:01:19.760Z,11.43
2018-12-08T12:02:21.442Z,11.46
2018-12-08T12:03:19.744Z,11.54
2018-12-08T12:04:19.733Z,11.51
2018-12-08T12:05:19.723Z,11.51
2018-12-08T12:06:19.717Z,11.49
2018-12-08T12:07:19.707Z,11.57
2018-12-08T12:08:19.697Z,11.6
2018-12-08T12:09:19.704Z,11.67
2018-12-08T12:10:19.444Z,11.69
2018-12-08T12:11:19.673Z,11.67
2018-12-08T12:12:19.745Z,11.7
2018-12-08T12:13:19.652Z,11.72
2018-12-08T12:14:19.644Z,11.65
2018-12-08T12:15:19.657Z,11.72
2018-12-08T12:16:19.624Z,11.61
2018-12-08T12:17:19.653Z,11.73
2018-12-08T12:18:19.608Z,11.72
2018-12-08T12:19:19.600Z,11.64
2018-12-08T12:20:19.591Z,11.67
2018-12-08T12:21:19.593Z,11.58
2018-12-08T12:22:19.581Z,11.54
2018-12-08T12:23:19.571Z,11.49
2018-12-08T12:24:19.556Z,11.52
2018-12-08T12:25:19.548Z,11.4
2018-12-08T12:26:19.539Z,11.44
2018-12-08T12:27:19.529Z,11.28
2018-12-08T12:28:19.524Z,11.39
2018-12-08T12:29:19.519Z,11.22
2018-12-08T12:30:19.505Z,11.28
2018-12-08T12:31:19.505Z,11.29
2018-12-08T12:32:19.490Z,11.27
2018-12-08T12:33:19.486Z,11.27
2018-12-08T12:34:19.467Z,11.32
2018-12-08T12:35:19.497Z,11.36
2018-12-08T12:36:19.447Z,11.27
2018-12-08T12:37:19.442Z,11.35
2018-12-08T12:38:19.435Z,11.35
2018-12-08T12:39:19.424Z,11.33
2018-12-08T12:40:19.415Z,11.29
2018-12-08T12:41:19.411Z,11.27
2018-12-08T12:42:19.397Z,11.37
2018-12-08T12:43:19.394Z,11.36
2018-12-08T12:44:19.382Z,11.44
2018-12-08T12:45:19.374Z,11.32
2018-12-08T12:46:19.362Z,11.35
2018-12-08T12:47:19.355Z,11.37
2018-12-08T12:48:19.343Z,11.28
2018-12-08T12:49:19.340Z,11.29
2018-12-08T12:50:19.325Z,11.24
2018-12-08T12:51:19.321Z,11.22
2018-12-08T12:52:19.313Z,11.22
2018-12-08T12:53:19.396Z,11.29
2018-12-08T12:54:19.381Z,11.27
2018-12-08T12:55:19.296Z,11.28
2018-12-08T12:56:19.271Z,11.29
2018-12-08T12:57:19.269Z,11.21
2018-12-08T12:58:19.254Z,11.03
2018-12-08T12:59:19.247Z,11.09
2018-12-08T13:00:19.234Z,11.11
2018-12-08T13:01:19.227Z,11.1
2018-12-08T13:02:19.215Z,11.15
2018-12-08T13:03:19.204Z,11.1
2018-12-08T13:04:19.199Z,11.09
2018-12-08T13:05:19.266Z,11.03
2018-12-08T13:06:19.184Z,10.99
2018-12-08T13:07:19.177Z,10.96
2018-12-08T13:08:19.178Z,11.03
2018-12-08T13:09:19.154Z,10.99
2018-12-08T13:10:19.143Z,10.89
2018-12-08T13:11:19.136Z,10.89
2018-12-08T13:12:19.135Z,10.89